createdAt,value
2023-10-29T00:01:28.333Z,97.02
2023-10-29T00:03:56.417Z,96.63
2023-10-29T00:06:23.285Z,96.83
2023-10-29T00:08:49.962Z,97.11
2023-10-29T00:11:16.647Z,97.99
2023-10-29T00:13:43.159Z,97.25
2023-10-29T00:16:09.791Z,97.26
2023-10-29T00:18:36.333Z,97.87
2023-10-29T00:21:04.921Z,98.15
2023-10-29T00:23:31.508Z,97.52
2023-10-29T00:25:58.992Z,98.21
2023-10-29T00:28:26.615Z,98.40
2023-10-29T00:30:56.359Z,98.37
2023-10-29T00:33:23.568Z,98.47
2023-10-29T00:35:50.212Z,98.81
2023-10-29T00:38:16.825Z,98.37
2023-10-29T00:40:43.326Z,98.20
2023-10-29T00:43:15.466Z,98.32
2023-10-29T00:45:43.872Z,98.74
2023-10-29T00:48:11.617Z,97.74
2023-10-29T00:50:39.219Z,98.24
2023-10-29T00:53:09.230Z,97.80
2023-10-29T00:55:36.877Z,97.79
2023-10-29T00:58:04.440Z,97.70
2023-10-29T01:00:30.987Z,97.62
2023-10-29T01:02:57.803Z,96.85
2023-10-29T01:05:24.629Z,96.53
2023-10-29T01:07:51.376Z,97.20
2023-10-29T01:10:17.870Z,97.22
2023-10-29T01:12:46.445Z,97.30
2023-10-29T01:15:12.974Z,97.51
2023-10-29T01:17:39.816Z,97.21
2023-10-29T01:20:06.924Z,96.73
2023-10-29T01:22:34.316Z,96.68
2023-10-29T01:25:00.938Z,96.54
2023-10-29T01:27:28.122Z,96.44
2023-10-29T01:29:54.866Z,96.37
2023-10-29T01:32:21.577Z,96.41
2023-10-29T01:34:48.287Z,96.40
2023-10-29T01:37:14.867Z,96.37
2023-10-29T01:39:41.371Z,96.62
2023-10-29T01:42:08.089Z,96.24
2023-10-29T01:44:34.660Z,96.32
2023-10-29T01:47:01.183Z,96.26
2023-10-29T01:49:27.713Z,95.72
2023-10-29T01:51:54.265Z,95.87
2023-10-29T01:54:22.045Z,96.24
2023-10-29T01:56:48.583Z,96.41
2023-10-29T01:59:15.752Z,96.04
2023-10-29T02:01:42.841Z,96.03
2023-10-29T02:04:10.522Z,95.78
2023-10-29T02:06:40.664Z,96.07
2023-10-29T02:09:11.180Z,95.57
2023-10-29T02:11:41.122Z,95.62
2023-10-29T02:14:07.984Z,95.97
2023-10-29T02:16:34.994Z,95.95
2023-10-29T02:19:01.536Z,95.63
2023-10-29T02:21:28.072Z,95.83
2023-10-29T02:23:56.188Z,95.96
2023-10-29T02:26:26.027Z,96.17
2023-10-29T02:28:52.655Z,95.87
2023-10-29T02:31:22.210Z,96.32
2023-10-29T02:33:49.285Z,95.70
2023-10-29T02:36:15.854Z,95.75
2023-10-29T02:38:44.193Z,96.44
2023-10-29T02:41:11.163Z,95.58
2023-10-29T02:43:44.069Z,95.98
2023-10-29T02:46:11.998Z,95.75
2023-10-29T02:48:39.078Z,95.85
2023-10-29T02:51:05.672Z,96.00
2023-10-29T02:53:32.414Z,95.75
2023-10-29T02:56:01.159Z,95.65
2023-10-29T02:58:27.816Z,95.42
2023-10-29T03:00:54.445Z,95.66
2023-10-29T03:03:21.343Z,95.39
2023-10-29T03:05:56.650Z,95.43
2023-10-29T03:08:24.139Z,95.30
2023-10-29T03:10:51.964Z,95.61
2023-10-29T03:13:18.626Z,95.17
2023-10-29T03:15:45.119Z,95.24
2023-10-29T03:18:13.060Z,95.14
2023-10-29T03:20:39.830Z,95.39
2023-10-29T03:23:06.447Z,95.01
2023-10-29T03:25:33.512Z,95.25
2023-10-29T03:28:00.163Z,94.61
2023-10-29T03:30:26.679Z,95.03
2023-10-29T03:32:53.410Z,95.33
2023-10-29T03:35:20.063Z,95.13
2023-10-29T03:37:46.696Z,94.50
2023-10-29T03:40:13.363Z,94.34
2023-10-29T03:42:39.996Z,94.64
2023-10-29T03:45:09.701Z,94.26
2023-10-29T03:47:36.821Z,94.54
2023-10-29T03:50:03.779Z,94.18
2023-10-29T03:52:30.407Z,93.40
2023-10-29T03:54:56.870Z,94.01
2023-10-29T03:57:23.369Z,93.84
2023-10-29T03:59:49.930Z,93.47
2023-10-29T04:02:16.473Z,93.30
2023-10-29T04:04:45.793Z,93.17
2023-10-29T04:07:17.318Z,93.75
2023-10-29T04:09:44.337Z,92.63
2023-10-29T04:12:10.779Z,92.96
2023-10-29T04:14:38.269Z,92.86
2023-10-29T04:17:05.485Z,92.67
2023-10-29T04:19:32.106Z,92.83
2023-10-29T04:21:58.713Z,92.83
2023-10-29T04:24:25.212Z,92.40
2023-10-29T04:26:51.918Z,92.70
2023-10-29T04:29:18.483Z,92.91
2023-10-29T04:31:44.965Z,92.52
2023-10-29T04:34:11.585Z,92.52
2023-10-29T04:36:38.068Z,92.70
2023-10-29T04:39:04.653Z,92.90
2023-10-29T04:41:31.191Z,92.57
2023-10-29T04:43:57.647Z,92.45
2023-10-29T04:46:24.222Z,92.99
2023-10-29T04:48:50.834Z,92.67
2023-10-29T04:51:17.332Z,92.50
2023-10-29T04:53:43.957Z,92.71
2023-10-29T04:56:10.454Z,92.71
2023-10-29T04:58:38.307Z,92.60
2023-10-29T05:01:04.884Z,92.49
2023-10-29T05:03:31.486Z,92.92
2023-10-29T05:05:58.044Z,92.58
2023-10-29T05:08:24.571Z,92.73
2023-10-29T05:10:51.109Z,92.59
2023-10-29T05:13:17.772Z,92.72
2023-10-29T05:15:44.505Z,92.41
2023-10-29T05:18:11.151Z,92.48
2023-10-29T05:20:38.528Z,93.21
2023-10-29T05:23:05.632Z,93.48
2023-10-29T05:25:32.200Z,93.41
2023-10-29T05:27:58.839Z,93.22
2023-10-29T05:30:25.490Z,93.13
2023-10-29T05:32:52.208Z,93.16
2023-10-29T05:35:18.897Z,93.00
2023-10-29T05:37:45.395Z,93.23
2023-10-29T05:40:12.431Z,93.15
2023-10-29T05:42:38.940Z,92.95
2023-10-29T05:45:08.159Z,92.90
2023-10-29T05:47:35.379Z,93.26
2023-10-29T05:50:05.332Z,92.69
2023-10-29T05:52:32.309Z,92.68
2023-10-29T05:55:01.933Z,92.51
2023-10-29T05:57:28.469Z,92.60
2023-10-29T05:59:55.115Z,92.70
2023-10-29T06:02:21.825Z,92.64
2023-10-29T06:04:48.662Z,92.88
2023-10-29T06:07:15.520Z,93.07
2023-10-29T06:09:42.199Z,92.46
2023-10-29T06:12:09.384Z,92.63
2023-10-29T06:14:35.970Z,92.66
2023-10-29T06:17:15.590Z,92.73
2023-10-29T06:19:46.233Z,92.67
2023-10-29T06:22:13.991Z,92.89
2023-10-29T06:24:40.495Z,92.77
2023-10-29T06:27:07.046Z,92.53
2023-10-29T06:29:33.897Z,92.66
2023-10-29T06:32:00.428Z,92.41
2023-10-29T06:34:26.975Z,93.03
2023-10-29T06:36:53.540Z,93.02
2023-10-29T06:39:20.058Z,92.92
2023-10-29T06:41:46.631Z,92.83
2023-10-29T06:44:13.302Z,92.61
2023-10-29T06:46:39.868Z,92.55
2023-10-29T06:49:06.625Z,92.51
2023-10-29T06:51:33.238Z,92.50
2023-10-29T06:53:59.937Z,92.71
2023-10-29T06:56:27.060Z,92.92
2023-10-29T06:58:53.688Z,92.52
2023-10-29T07:01:20.221Z,92.48
2023-10-29T07:03:47.611Z,92.44
2023-10-29T07:06:17.238Z,92.28
2023-10-29T07:08:46.547Z,92.08
2023-10-29T07:11:13.334Z,92.07
2023-10-29T07:13:39.908Z,92.21
2023-10-29T07:16:06.780Z,92.46
2023-10-29T07:18:33.486Z,92.23
2023-10-29T07:21:00.320Z,92.06
2023-10-29T07:23:27.404Z,91.91
2023-10-29T07:25:53.992Z,91.52
2023-10-29T07:28:20.865Z,91.79
2023-10-29T07:30:47.440Z,91.93
2023-10-29T07:33:14.040Z,91.74
2023-10-29T07:35:40.852Z,91.46
2023-10-29T07:38:13.694Z,91.50
2023-10-29T07:40:40.428Z,91.02
2023-10-29T07:43:07.038Z,91.43
2023-10-29T07:45:33.658Z,91.67
2023-10-29T07:48:00.378Z,91.27
2023-10-29T07:50:27.260Z,91.26
2023-10-29T07:52:54.109Z,91.50
2023-10-29T07:55:20.769Z,91.41
2023-10-29T07:57:47.383Z,91.34
2023-10-29T08:00:14.940Z,91.30
2023-10-29T08:02:45.349Z,91.20
2023-10-29T08:05:12.188Z,91.41
2023-10-29T08:07:40.380Z,90.87
2023-10-29T08:10:07.492Z,90.53
2023-10-29T08:12:35.732Z,90.78
2023-10-29T08:15:04.102Z,90.91
2023-10-29T08:17:31.085Z,91.07
2023-10-29T08:19:59.767Z,91.10
2023-10-29T08:22:26.692Z,91.35
2023-10-29T08:24:56.110Z,91.56
2023-10-29T08:27:22.703Z,91.34
2023-10-29T08:29:50.703Z,91.02
2023-10-29T08:32:17.584Z,90.80
2023-10-29T08:34:44.416Z,91.09
2023-10-29T08:37:14.069Z,91.10
2023-10-29T08:39:40.706Z,90.90
2023-10-29T08:42:10.223Z,90.77
2023-10-29T08:44:37.023Z,91.29
2023-10-29T08:47:03.872Z,91.31
2023-10-29T08:49:30.417Z,91.25
2023-10-29T08:51:56.981Z,91.13
2023-10-29T08:54:24.943Z,91.43
2023-10-29T08:56:52.106Z,91.24
2023-10-29T08:59:18.751Z,90.61
2023-10-29T09:01:45.505Z,90.46
2023-10-29T09:04:13.324Z,90.43
2023-10-29T09:06:40.262Z,90.06
2023-10-29T09:09:07.688Z,89.85
2023-10-29T09:11:34.291Z,90.00
2023-10-29T09:14:02.306Z,90.16
2023-10-29T09:16:28.890Z,89.99
2023-10-29T09:18:55.500Z,89.90
2023-10-29T09:21:22.084Z,89.55
2023-10-29T09:23:48.619Z,89.41
2023-10-29T09:26:17.419Z,88.91
2023-10-29T09:28:44.770Z,88.81
2023-10-29T09:31:20.669Z,89.22
2023-10-29T09:33:48.306Z,88.51
2023-10-29T09:36:14.966Z,88.87
2023-10-29T09:38:42.520Z,89.01
2023-10-29T09:41:09.245Z,88.70
2023-10-29T09:43:45.009Z,88.57
2023-10-29T09:46:12.514Z,88.43
2023-10-29T09:48:40.908Z,88.23
2023-10-29T09:51:08.114Z,88.40
2023-10-29T09:53:36.544Z,87.57
2023-10-29T09:56:05.154Z,85.19
2023-10-29T09:58:31.752Z,85.26
2023-10-29T10:00:59.386Z,85.08
2023-10-29T10:03:27.168Z,85.08
2023-10-29T10:05:55.226Z,84.88
2023-10-29T10:08:28.885Z,84.95
2023-10-29T10:10:57.160Z,84.72
2023-10-29T10:13:42.263Z,84.51
2023-10-29T10:16:14.482Z,84.37
2023-10-29T10:18:58.972Z,84.03
2023-10-29T10:21:45.016Z,84.32
2023-10-29T10:24:12.270Z,84.19
2023-10-29T10:26:40.233Z,83.38
2023-10-29T10:29:09.113Z,83.54
2023-10-29T10:31:39.020Z,83.28
2023-10-29T10:34:14.963Z,83.26
2023-10-29T10:36:43.210Z,83.06
2023-10-29T10:39:10.134Z,83.45
2023-10-29T10:41:44.789Z,83.52
2023-10-29T10:44:16.661Z,83.78
2023-10-29T10:46:48.651Z,84.12
2023-10-29T10:49:15.887Z,84.00
2023-10-29T10:51:42.639Z,84.30
2023-10-29T10:54:10.139Z,84.28
2023-10-29T10:56:38.171Z,84.28
2023-10-29T10:59:08.918Z,84.53
2023-10-29T11:01:39.465Z,83.48
2023-10-29T11:04:09.226Z,83.85
2023-10-29T11:06:38.914Z,83.99
2023-10-29T11:09:13.823Z,84.40
2023-10-29T11:11:53.313Z,84.88
2023-10-29T11:14:21.026Z,84.72
2023-10-29T11:16:51.942Z,84.44
2023-10-29T11:19:34.234Z,85.09
2023-10-29T11:22:20.453Z,84.88
2023-10-29T11:25:05.879Z,85.02
2023-10-29T11:27:42.035Z,85.10
2023-10-29T11:30:19.419Z,85.65
2023-10-29T11:32:47.690Z,85.22
2023-10-29T11:35:17.952Z,85.42
2023-10-29T11:37:45.447Z,85.31
2023-10-29T11:40:24.387Z,85.68
2023-10-29T11:42:54.322Z,85.83
2023-10-29T11:45:27.128Z,85.81
2023-10-29T11:48:12.794Z,85.63
2023-10-29T11:50:41.083Z,85.66
2023-10-29T11:53:07.928Z,85.61
2023-10-29T11:55:43.399Z,84.70
2023-10-29T11:58:09.929Z,84.11
2023-10-29T12:00:40.313Z,84.11
2023-10-29T12:03:11.155Z,84.33
2023-10-29T12:05:37.940Z,84.34
2023-10-29T12:08:05.369Z,83.81
2023-10-29T12:10:32.356Z,83.49
2023-10-29T12:12:58.912Z,82.57
2023-10-29T12:15:25.631Z,80.83
2023-10-29T12:17:52.725Z,80.24
2023-10-29T12:20:27.157Z,79.37
2023-10-29T12:23:04.118Z,78.95
2023-10-29T12:25:30.944Z,78.30
2023-10-29T12:27:57.925Z,78.33
2023-10-29T12:30:37.602Z,78.40
2023-10-29T12:33:30.771Z,78.20
2023-10-29T12:36:00.827Z,78.20
2023-10-29T12:38:27.693Z,78.39
2023-10-29T12:41:06.070Z,78.03
2023-10-29T12:43:48.303Z,78.23
2023-10-29T12:46:17.960Z,77.49
2023-10-29T12:49:00.945Z,77.26
2023-10-29T12:51:36.741Z,77.33
2023-10-29T12:54:18.056Z,77.44
2023-10-29T12:56:55.848Z,77.24
2023-10-29T12:59:23.075Z,76.68
2023-10-29T13:01:56.760Z,76.26
2023-10-29T13:04:25.004Z,76.42
2023-10-29T13:06:57.293Z,76.22
2023-10-29T13:09:26.188Z,76.54
2023-10-29T13:11:53.696Z,76.49
2023-10-29T13:14:20.811Z,77.29
2023-10-29T13:16:47.508Z,78.00
2023-10-29T13:19:14.432Z,78.50
2023-10-29T13:21:41.966Z,78.86
2023-10-29T13:24:09.394Z,79.55
2023-10-29T13:26:36.854Z,79.78
2023-10-29T13:29:03.491Z,80.11
2023-10-29T13:31:30.204Z,80.20
2023-10-29T13:33:58.279Z,80.41
2023-10-29T13:36:29.749Z,80.28
2023-10-29T13:38:56.435Z,80.95
2023-10-29T13:41:24.143Z,81.44
2023-10-29T13:43:50.796Z,82.17
2023-10-29T13:46:17.523Z,81.93
2023-10-29T13:48:44.142Z,82.12
2023-10-29T13:51:11.637Z,82.41
2023-10-29T13:53:39.121Z,82.94
2023-10-29T13:56:12.485Z,82.79
2023-10-29T13:58:40.275Z,83.29
2023-10-29T14:01:21.334Z,83.65
2023-10-29T14:03:50.001Z,83.42
2023-10-29T14:06:17.637Z,84.05
2023-10-29T14:08:45.044Z,84.18
2023-10-29T14:11:11.798Z,84.20
2023-10-29T14:13:38.372Z,84.58
2023-10-29T14:16:05.230Z,85.07
2023-10-29T14:18:31.952Z,84.97
2023-10-29T14:20:58.650Z,85.23
2023-10-29T14:23:25.236Z,85.85
2023-10-29T14:25:52.184Z,85.95
2023-10-29T14:28:19.104Z,86.13
2023-10-29T14:30:45.914Z,86.31
2023-10-29T14:33:12.825Z,86.39
2023-10-29T14:35:39.414Z,86.70
2023-10-29T14:38:07.149Z,86.86
2023-10-29T14:40:33.711Z,86.79
2023-10-29T14:43:14.967Z,87.19
2023-10-29T14:45:47.173Z,87.09
2023-10-29T14:48:14.184Z,87.62
2023-10-29T14:50:40.910Z,87.53
2023-10-29T14:53:09.009Z,87.81
2023-10-29T14:55:36.004Z,87.77
2023-10-29T14:58:03.027Z,88.07
2023-10-29T15:00:29.796Z,87.90
2023-10-29T15:02:56.470Z,87.48
2023-10-29T15:05:23.834Z,87.90
2023-10-29T15:07:50.482Z,88.15
2023-10-29T15:10:17.156Z,88.15
2023-10-29T15:12:44.323Z,88.18
2023-10-29T15:15:26.254Z,88.32
2023-10-29T15:17:56.665Z,88.70
2023-10-29T15:20:23.458Z,88.70
2023-10-29T15:22:50.519Z,89.18
2023-10-29T15:25:17.319Z,88.39
2023-10-29T15:27:44.046Z,87.78
2023-10-29T15:30:11.941Z,88.32
2023-10-29T15:32:39.044Z,87.84
2023-10-29T15:35:06.491Z,87.76
2023-10-29T15:37:33.165Z,88.37
2023-10-29T15:40:00.047Z,87.59
2023-10-29T15:42:27.047Z,87.25
2023-10-29T15:44:53.814Z,87.99
2023-10-29T15:47:23.899Z,87.89
2023-10-29T15:49:52.763Z,88.00
2023-10-29T15:52:22.327Z,87.82
2023-10-29T15:54:49.194Z,87.93
2023-10-29T15:57:16.008Z,88.00
2023-10-29T15:59:43.184Z,87.98
2023-10-29T16:02:09.702Z,87.96
2023-10-29T16:04:36.353Z,87.92
2023-10-29T16:07:04.476Z,88.09
2023-10-29T16:09:32.004Z,87.90
2023-10-29T16:12:00.171Z,88.20
2023-10-29T16:14:26.870Z,88.23
2023-10-29T16:16:53.630Z,88.83
2023-10-29T16:19:20.521Z,89.52
2023-10-29T16:21:47.028Z,89.70
2023-10-29T16:24:14.846Z,90.01
2023-10-29T16:26:41.957Z,90.37
2023-10-29T16:29:08.646Z,90.12
2023-10-29T16:31:35.272Z,90.29
2023-10-29T16:34:02.187Z,90.28
2023-10-29T16:36:28.980Z,90.59
2023-10-29T16:38:57.364Z,90.46
2023-10-29T16:41:23.939Z,90.16
2023-10-29T16:43:53.811Z,90.47
2023-10-29T16:46:20.703Z,90.74
2023-10-29T16:48:48.350Z,90.49
2023-10-29T16:51:14.926Z,91.07
2023-10-29T16:53:41.557Z,90.91
2023-10-29T16:56:09.718Z,90.62
2023-10-29T16:58:36.498Z,90.49
2023-10-29T17:01:04.297Z,90.65
2023-10-29T17:03:30.884Z,90.48
2023-10-29T17:05:58.255Z,90.33
2023-10-29T17:08:24.930Z,90.63
2023-10-29T17:10:51.566Z,90.84
2023-10-29T17:13:18.925Z,90.37
2023-10-29T17:15:45.863Z,90.45
2023-10-29T17:18:12.696Z,90.15
2023-10-29T17:20:39.296Z,90.00
2023-10-29T17:23:06.256Z,90.12
2023-10-29T17:25:36.878Z,90.45
2023-10-29T17:28:03.699Z,90.41
2023-10-29T17:30:30.366Z,90.50
2023-10-29T17:32:58.769Z,90.28
2023-10-29T17:35:30.874Z,90.17
2023-10-29T17:37:58.340Z,90.06
2023-10-29T17:40:27.700Z,90.06
2023-10-29T17:42:54.161Z,90.14
2023-10-29T17:45:21.498Z,89.67
2023-10-29T17:47:50.261Z,90.01
2023-10-29T17:50:16.929Z,89.68
2023-10-29T17:52:43.585Z,89.94
2023-10-29T17:55:10.082Z,90.00
2023-10-29T17:57:37.187Z,90.02
2023-10-29T18:00:08.212Z,89.83
2023-10-29T18:02:36.588Z,90.01
2023-10-29T18:05:04.363Z,90.17
2023-10-29T18:07:31.053Z,90.20
2023-10-29T18:09:57.580Z,90.49
2023-10-29T18:12:24.138Z,90.30
2023-10-29T18:14:51.652Z,90.19
2023-10-29T18:17:19.719Z,90.22
2023-10-29T18:19:47.392Z,90.32
2023-10-29T18:22:14.052Z,90.50
2023-10-29T18:24:40.689Z,91.03
2023-10-29T18:27:07.345Z,90.42
2023-10-29T18:29:33.896Z,90.52
2023-10-29T18:32:02.107Z,89.84
2023-10-29T18:34:28.969Z,89.46
2023-10-29T18:36:55.568Z,90.03
2023-10-29T18:39:22.081Z,89.58
2023-10-29T18:41:48.610Z,89.79
2023-10-29T18:44:15.074Z,89.58
2023-10-29T18:46:41.644Z,90.01
2023-10-29T18:49:08.118Z,89.31
2023-10-29T18:51:34.662Z,89.61
2023-10-29T18:54:01.299Z,88.95
2023-10-29T18:56:27.870Z,88.04
2023-10-29T18:58:57.184Z,87.92
2023-10-29T19:01:23.807Z,87.23
2023-10-29T19:03:50.618Z,87.49
2023-10-29T19:06:17.285Z,87.16
2023-10-29T19:08:43.884Z,87.42
2023-10-29T19:11:11.299Z,87.59
2023-10-29T19:13:38.080Z,86.97
2023-10-29T19:16:08.098Z,86.70
2023-10-29T19:18:35.604Z,86.76
2023-10-29T19:21:02.453Z,86.86
2023-10-29T19:23:29.197Z,86.76
2023-10-29T19:25:58.351Z,87.00
2023-10-29T19:28:25.175Z,87.12
2023-10-29T19:31:11.007Z,86.75
2023-10-29T19:33:41.731Z,86.90
2023-10-29T19:36:12.804Z,87.10
2023-10-29T19:38:40.082Z,87.40
2023-10-29T19:41:07.152Z,87.05
2023-10-29T19:43:34.158Z,86.77
2023-10-29T19:46:01.182Z,87.02
2023-10-29T19:48:28.869Z,86.88
2023-10-29T19:51:02.142Z,87.04
2023-10-29T19:53:29.952Z,87.06
2023-10-29T19:55:56.906Z,87.35
2023-10-29T19:58:24.052Z,87.31
2023-10-29T20:00:51.792Z,87.09
2023-10-29T20:03:19.308Z,87.26
2023-10-29T20:05:46.385Z,87.04
2023-10-29T20:08:12.951Z,87.11
2023-10-29T20:10:41.261Z,87.08
2023-10-29T20:13:08.146Z,86.88
2023-10-29T20:15:35.458Z,87.27
2023-10-29T20:18:02.444Z,86.83
2023-10-29T20:20:29.458Z,87.17
2023-10-29T20:22:57.438Z,86.96
2023-10-29T20:25:27.629Z,87.13
2023-10-29T20:27:54.990Z,87.05
2023-10-29T20:30:24.119Z,87.37
2023-10-29T20:32:51.040Z,86.85
2023-10-29T20:35:17.839Z,87.25
2023-10-29T20:37:44.640Z,87.02
2023-10-29T20:40:12.326Z,87.29
2023-10-29T20:42:39.181Z,87.05
2023-10-29T20:45:06.418Z,87.48
2023-10-29T20:47:33.051Z,87.58
2023-10-29T20:49:59.610Z,87.52
2023-10-29T20:52:26.273Z,87.35
2023-10-29T20:54:53.119Z,87.32
2023-10-29T20:57:20.084Z,87.48
2023-10-29T20:59:46.867Z,87.89
2023-10-29T21:02:13.584Z,87.43
2023-10-29T21:04:40.155Z,87.57
2023-10-29T21:07:06.838Z,87.85
2023-10-29T21:09:33.586Z,87.68
2023-10-29T21:12:00.098Z,87.40
2023-10-29T21:14:26.586Z,88.17
2023-10-29T21:16:54.164Z,88.19
2023-10-29T21:19:26.869Z,87.88
2023-10-29T21:21:56.656Z,87.76
2023-10-29T21:24:23.366Z,88.04
2023-10-29T21:26:52.464Z,87.77
2023-10-29T21:29:19.403Z,87.70
2023-10-29T21:31:45.983Z,87.87
2023-10-29T21:34:12.592Z,87.81
2023-10-29T21:36:39.289Z,87.69
2023-10-29T21:39:06.036Z,87.71
2023-10-29T21:41:32.619Z,87.68
2023-10-29T21:43:59.419Z,87.38
2023-10-29T21:46:26.603Z,87.65
2023-10-29T21:48:53.334Z,87.39
2023-10-29T21:51:20.177Z,87.63
2023-10-29T21:53:46.850Z,87.85
2023-10-29T21:56:13.416Z,87.35
2023-10-29T21:58:39.950Z,87.41
2023-10-29T22:01:06.609Z,87.24
2023-10-29T22:03:34.825Z,86.88
2023-10-29T22:06:07.626Z,87.07
2023-10-29T22:08:35.349Z,86.94
2023-10-29T22:11:04.490Z,86.87
2023-10-29T22:13:33.883Z,86.77
2023-10-29T22:16:19.815Z,86.95
2023-10-29T22:18:46.450Z,86.99
2023-10-29T22:21:13.610Z,86.85
2023-10-29T22:23:41.310Z,86.75
2023-10-29T22:26:09.587Z,86.72
2023-10-29T22:28:37.692Z,86.63
2023-10-29T22:31:04.880Z,86.61
2023-10-29T22:33:32.374Z,86.56
2023-10-29T22:36:04.123Z,86.48
2023-10-29T22:38:31.370Z,86.50
2023-10-29T22:41:01.715Z,86.62
2023-10-29T22:43:29.501Z,86.71
2023-10-29T22:45:56.457Z,86.32
2023-10-29T22:48:23.278Z,86.63
2023-10-29T22:50:49.910Z,86.58
2023-10-29T22:53:16.508Z,86.34
2023-10-29T22:55:43.167Z,86.32
2023-10-29T22:58:09.696Z,86.68
2023-10-29T23:00:36.342Z,86.52
2023-10-29T23:03:03.107Z,86.76
2023-10-29T23:05:36.373Z,86.54
2023-10-29T23:08:03.034Z,86.18
2023-10-29T23:10:31.556Z,86.47
2023-10-29T23:12:58.780Z,86.55
2023-10-29T23:15:25.381Z,86.59
2023-10-29T23:17:52.013Z,86.67
2023-10-29T23:20:18.605Z,86.78
2023-10-29T23:22:45.127Z,87.06
2023-10-29T23:25:12.258Z,87.34
2023-10-29T23:27:40.084Z,87.40
2023-10-29T23:30:07.667Z,87.03
2023-10-29T23:32:34.521Z,87.01
2023-10-29T23:35:01.096Z,87.39
2023-10-29T23:37:28.030Z,87.67
2023-10-29T23:39:55.118Z,87.51
2023-10-29T23:42:21.697Z,87.13
2023-10-29T23:44:48.472Z,86.85
2023-10-29T23:47:14.991Z,87.04
2023-10-29T23:49:41.511Z,86.94
2023-10-29T23:52:07.997Z,87.01
2023-10-29T23:54:34.545Z,86.82
2023-10-29T23:57:01.120Z,86.67
2023-10-29T23:59:27.654Z,87.05
